Cassagnes-Bégonhès Airport

LFIG · Aveyron, Occitanie, 法国

罗盘
风向 的 风向 的 风向 到 风向 360° Cassagnes-Bégonhès Airport 10/28
风: 15 kt, 4 beaufort

1 kt

15 kt
改变
0 ft 1.000 2.000 3.000 4.000 5.000
CAVOK
METAR LFCR 041530Z AUTO 36015KT 330V030 CAVOK 09/03 Q1032 NOSIG

METAR Cassagnes-Bégonhès Airport - LFIG

Cassagnes-Bégonhès Airport是,法国中的小机场。 该机场有一条跑道: 10/28. 该领域的国际民航组织标志是LFIG.

这份报告是针对2023年2月4日 16:30, 当地时间在Rodez-Marcillac Airport进行的。

机场观察

风向为360°,速度为15 kt。 风向在330°和030°之间变化。

天气为CAVOK。这意味着在5.000 ft或MSA(最低安全高度)以下(以较高者为准)以下没有云。这也意味着没有观测到积雨云或高耸的积云,可见度为10 km 或者更多或更高。此外,不会有雾,降雨或其他重要天气。

温度为9 °C,阵风为4 °C。 露点为3 °C,相对湿度为66%。 海平面上的气压为1032 hPa (QNH)。

白天

今天,太阳从08:04升起,在18:03降落。 这适用于Cassagnes-Bégonhès Airport,世界夏令时可能有所不同。 当地时间与世界标准时间之间的时差为+1 小时。 当前,没有夏令时有效。

公司介绍

在这个机场,你可以找到飞行俱乐部。 本场上唯一已知的公司是Aéroclub du Ségala。

体会

到Vliegles.nl去找飞行课程,跳伞和其他飞行体验。 浏览页面,了解Cassagnes-Bégonhès Airport附近所有可用的活动。 你也可以使用搜索功能来寻找你所在地附近的特定飞行课程、跳伞或其他飞行体验。

跑道

Id 标题 侧风 逆风 侧风 %
10/28 093°-273° 15 kt 100 %

逆风成分最大的方向会被突出显示,并用于横风计算。 这并不一定意味着这个方向在使用。

温度 & 天气

温度 9 °C
露点 3 °C
相对湿度 66%
风寒 4 °C
Kp-index 0 (0-9)

白天

日出
08:04
中午
13:03
日落
18:02 (1:25)

小工具

你想在你的网站上有一个关于Cassagnes-Bégonhès Airport的当前航空天气(METAR)的小部件吗?

显示HTML代码

我们和第三方通过cookies跟踪您在我们网站上的互联网行为。如果你继续,我们认为你同意我们的饼干政策